Time;durP1;ratioP1;P1;durP2;ratioP2;P2;SDS_P1;SDS_P2;PMS_P1;PMS_P2;Temp;Humidity;BMP_temperature;BMP_pressure;BME280_temperature;BME280_humidity;BME280_pressure;Samples;Min_cycle;Max_cycle;Signal;HPM_P1;HPM_P2
2022/03/28 00:00:56;;;;;;;6.22;4.18;;;9.10;99.90;;;;;;4959536;28;20057;-64
2022/03/28 00:03:22;;;;;;;10.13;4.70;;;9.10;99.90;;;;;;4950708;28;20062;-64
2022/03/28 00:05:47;;;;;;;9.45;4.32;;;9.10;99.90;;;;;;4966466;28;20050;-64
2022/03/28 00:08:13;;;;;;;8.75;4.43;;;9.00;99.90;;;;;;4985558;28;20051;-64
2022/03/28 00:10:39;;;;;;;7.75;4.00;;;9.00;99.90;;;;;;4974005;28;20342;-65
2022/03/28 00:13:05;;;;;;;8.73;5.07;;;9.00;99.90;;;;;;4973466;28;20038;-64
2022/03/28 00:15:30;;;;;;;8.07;4.10;;;9.00;99.90;;;;;;4968990;28;20142;-64
2022/03/28 00:17:56;;;;;;;10.88;4.90;;;9.00;99.90;;;;;;4976189;28;20081;-64
2022/03/28 00:20:24;;;;;;;10.35;4.53;;;9.10;99.90;;;;;;4961459;28;20047;-64
2022/03/28 00:22:50;;;;;;;12.48;6.32;;;9.00;99.90;;;;;;4978132;28;20254;-64
2022/03/28 00:25:16;;;;;;;14.88;5.30;;;9.00;99.90;;;;;;4987093;28;20201;-64
2022/03/28 00:27:41;;;;;;;10.07;5.38;;;8.90;99.90;;;;;;4989215;28;20051;-64
2022/03/28 00:30:08;;;;;;;10.38;5.15;;;8.90;99.90;;;;;;4971288;28;20057;-64
2022/03/28 00:32:34;;;;;;;6.80;4.32;;;9.00;99.90;;;;;;4960000;28;20053;-64
2022/03/28 00:35:00;;;;;;;13.88;6.13;;;9.00;99.90;;;;;;4976129;28;20046;-64
2022/03/28 00:37:26;;;;;;;74.28;53.72;;;9.00;99.90;;;;;;4954393;28;20059;-65
2022/03/28 00:39:52;;;;;;;66.60;48.88;;;9.10;99.90;;;;;;4978332;28;20046;-64
2022/03/28 00:42:17;;;;;;;88.55;63.20;;;9.10;99.90;;;;;;4990724;28;20065;-64
2022/03/28 00:44:43;;;;;;;60.38;50.97;;;9.20;99.90;;;;;;4979848;28;20039;-64
2022/03/28 00:47:08;;;;;;;20.00;14.25;;;9.20;99.90;;;;;;4955259;28;20093;-64
2022/03/28 00:49:34;;;;;;;21.20;11.32;;;9.10;99.90;;;;;;4970211;28;20057;-64
2022/03/28 00:52:00;;;;;;;23.98;15.15;;;9.10;99.90;;;;;;4968012;28;20047;-64
2022/03/28 00:54:26;;;;;;;13.43;7.85;;;9.00;99.90;;;;;;4974184;28;20081;-64
2022/03/28 00:56:51;;;;;;;7.55;5.30;;;8.90;99.90;;;;;;4957473;28;20046;-64
2022/03/28 00:59:18;;;;;;;11.13;4.50;;;8.90;99.90;;;;;;4955260;28;20078;-64
2022/03/28 01:01:46;;;;;;;7.68;4.82;;;8.80;99.90;;;;;;4953941;28;20051;-64
2022/03/28 01:04:12;;;;;;;13.10;5.47;;;8.80;99.90;;;;;;4977975;28;20081;-64
2022/03/28 01:06:38;;;;;;;9.45;4.97;;;8.70;99.90;;;;;;5007329;28;20779;-64
2022/03/28 01:09:05;;;;;;;9.13;4.35;;;8.70;99.90;;;;;;4961276;28;20098;-64
2022/03/28 01:11:33;;;;;;;8.35;5.03;;;8.60;99.90;;;;;;4989370;28;20397;-64
2022/03/28 01:13:59;;;;;;;5.75;5.03;;;8.70;99.90;;;;;;4988738;28;20537;-65
2022/03/28 01:16:28;;;;;;;7.55;4.75;;;8.70;99.90;;;;;;4967208;28;20445;-64
2022/03/28 01:18:53;;;;;;;11.15;5.75;;;8.70;99.90;;;;;;4963583;28;20046;-64
2022/03/28 01:21:19;;;;;;;13.23;4.97;;;8.60;99.90;;;;;;4977046;28;20089;-64
2022/03/28 01:23:44;;;;;;;8.77;4.30;;;8.60;99.90;;;;;;5004026;28;20039;-64
2022/03/28 01:26:12;;;;;;;14.50;6.05;;;8.60;99.90;;;;;;4971678;28;20090;-64
2022/03/28 01:28:38;;;;;;;9.70;5.45;;;8.50;99.90;;;;;;4976923;28;20104;-64
2022/03/28 01:31:03;;;;;;;12.05;5.90;;;8.50;99.90;;;;;;4978192;28;20043;-64
2022/03/28 01:33:29;;;;;;;7.22;4.68;;;8.50;99.90;;;;;;4954965;28;20051;-65
2022/03/28 01:35:55;;;;;;;7.05;4.90;;;8.50;99.90;;;;;;4953243;28;20542;-64
2022/03/28 01:38:21;;;;;;;6.40;3.75;;;8.50;99.90;;;;;;4966500;28;20047;-64
2022/03/28 01:40:49;;;;;;;9.55;4.30;;;8.50;99.90;;;;;;4977603;28;20082;-64
2022/03/28 01:43:16;;;;;;;5.22;3.13;;;8.50;99.90;;;;;;4986240;28;20392;-64
2022/03/28 01:45:42;;;;;;;8.15;3.20;;;8.40;99.90;;;;;;4969783;28;20035;-64
2022/03/28 01:48:08;;;;;;;4.90;2.90;;;8.30;99.90;;;;;;4954251;28;20051;-64
2022/03/28 01:50:34;;;;;;;4.90;2.75;;;8.50;99.90;;;;;;4967764;28;20263;-64
2022/03/28 01:53:00;;;;;;;7.30;2.70;;;8.50;99.90;;;;;;4979545;28;20058;-64
2022/03/28 01:55:26;;;;;;;7.35;3.05;;;8.50;99.90;;;;;;4957550;28;20058;-64
2022/03/28 01:57:52;;;;;;;3.25;2.75;;;8.40;99.90;;;;;;4986008;28;20075;-64
2022/03/28 02:00:19;;;;;;;6.43;2.95;;;8.40;99.90;;;;;;4955948;28;20074;-64
2022/03/28 02:02:48;;;;;;;6.70;2.67;;;8.40;99.90;;;;;;4976881;28;20035;-64
2022/03/28 02:05:18;;;;;;;3.83;2.60;;;8.20;99.90;;;;;;4971096;28;20042;-64
2022/03/28 02:07:46;;;;;;;3.33;2.70;;;8.30;99.90;;;;;;4969709;28;20039;-64
2022/03/28 02:10:14;;;;;;;3.72;2.78;;;8.20;99.90;;;;;;4971613;28;20051;-65
2022/03/28 02:12:40;;;;;;;5.32;3.15;;;8.20;99.90;;;;;;4980986;28;20042;-64
2022/03/28 02:15:07;;;;;;;8.73;3.35;;;8.10;99.90;;;;;;4982855;28;20513;-65
2022/03/28 02:17:33;;;;;;;4.43;3.10;;;8.20;99.90;;;;;;4964847;28;20137;-64
2022/03/28 02:19:59;;;;;;;8.38;4.13;;;8.10;99.90;;;;;;4971824;28;20088;-65
2022/03/28 02:22:25;;;;;;;5.65;4.63;;;8.00;99.90;;;;;;4970979;28;20496;-64
2022/03/28 02:24:51;;;;;;;7.13;4.78;;;8.00;99.90;;;;;;4975015;28;20039;-64
2022/03/28 02:27:17;;;;;;;5.70;4.22;;;8.00;99.90;;;;;;4975170;28;20035;-64
2022/03/28 02:29:42;;;;;;;7.30;3.95;;;8.00;99.90;;;;;;4981018;28;20078;-64
2022/03/28 02:32:09;;;;;;;5.63;3.67;;;8.00;99.90;;;;;;4971732;28;20394;-64
2022/03/28 02:34:34;;;;;;;5.38;3.58;;;8.00;99.90;;;;;;4960946;28;20051;-64
2022/03/28 02:37:00;;;;;;;3.38;3.08;;;8.00;99.90;;;;;;4951181;28;20059;-65
2022/03/28 02:39:25;;;;;;;7.75;4.40;;;8.10;99.90;;;;;;4971511;28;20102;-65
2022/03/28 02:41:52;;;;;;;4.75;3.85;;;8.00;99.90;;;;;;4977092;28;20553;-64
2022/03/28 02:44:17;;;;;;;4.35;3.67;;;8.00;99.90;;;;;;4958491;28;20043;-64
2022/03/28 02:46:44;;;;;;;6.55;3.60;;;8.00;99.90;;;;;;4952566;28;20043;-64
2022/03/28 02:49:10;;;;;;;4.13;3.55;;;8.00;99.90;;;;;;4959614;28;20051;-64
2022/03/28 02:51:35;;;;;;;7.65;5.20;;;8.20;99.90;;;;;;4950154;28;20201;-64
2022/03/28 02:54:01;;;;;;;5.13;3.60;;;8.20;99.90;;;;;;4967214;28;20042;-65
2022/03/28 02:56:26;;;;;;;7.50;4.75;;;8.10;99.90;;;;;;4970922;28;20633;-64
2022/03/28 02:58:52;;;;;;;5.38;4.18;;;8.00;99.90;;;;;;4962546;28;20073;-65
2022/03/28 03:01:18;;;;;;;4.47;3.33;;;8.10;99.90;;;;;;4967365;28;20073;-65
2022/03/28 03:03:43;;;;;;;9.63;3.28;;;8.10;99.90;;;;;;4957321;28;20133;-65
2022/03/28 03:06:09;;;;;;;4.53;3.05;;;8.20;99.90;;;;;;4963270;28;20529;-65
2022/03/28 03:08:35;;;;;;;4.40;2.75;;;8.10;99.90;;;;;;4960569;28;20042;-65
2022/03/28 03:11:00;;;;;;;3.88;2.58;;;8.00;99.90;;;;;;4984859;28;20061;-64
2022/03/28 03:13:26;;;;;;;4.47;3.63;;;8.10;99.90;;;;;;4977455;28;20394;-65
2022/03/28 03:15:51;;;;;;;3.00;2.50;;;7.90;99.90;;;;;;4962635;28;20101;-65
2022/03/28 03:18:17;;;;;;;4.32;2.83;;;8.00;99.90;;;;;;4971322;28;20039;-65
2022/03/28 03:20:42;;;;;;;3.20;2.42;;;8.00;99.90;;;;;;4979652;28;20082;-65
2022/03/28 03:23:08;;;;;;;3.13;2.83;;;8.00;99.90;;;;;;4970907;28;20093;-65
2022/03/28 03:25:34;;;;;;;3.65;3.08;;;8.00;99.90;;;;;;4952559;28;20047;-65
2022/03/28 03:27:59;;;;;;;7.47;3.65;;;7.90;99.90;;;;;;4958981;28;20051;-65
2022/03/28 03:30:25;;;;;;;6.63;3.78;;;7.80;99.90;;;;;;4968825;28;20050;-65
2022/03/28 03:32:50;;;;;;;8.88;4.13;;;7.90;99.90;;;;;;4963757;28;20050;-65
2022/03/28 03:35:16;;;;;;;8.05;4.82;;;7.80;99.90;;;;;;4955785;28;20410;-65
2022/03/28 03:37:42;;;;;;;3.78;3.17;;;7.70;99.90;;;;;;4987932;28;20478;-65
2022/03/28 03:40:10;;;;;;;6.15;3.70;;;7.90;99.90;;;;;;4973532;28;20751;-66
2022/03/28 03:42:35;;;;;;;5.40;3.83;;;7.80;99.90;;;;;;4965137;28;20065;-65
2022/03/28 03:45:01;;;;;;;5.85;3.50;;;7.60;99.90;;;;;;4979332;28;20046;-66
2022/03/28 03:47:27;;;;;;;3.83;3.40;;;7.70;99.90;;;;;;4973506;28;20492;-66
2022/03/28 03:49:52;;;;;;;6.32;3.58;;;7.70;99.90;;;;;;4973682;28;20045;-64
2022/03/28 03:52:19;;;;;;;4.70;3.42;;;7.70;99.90;;;;;;4958880;28;20118;-64
2022/03/28 03:54:44;;;;;;;7.25;4.15;;;7.70;99.90;;;;;;4970324;28;20495;-64
2022/03/28 03:57:10;;;;;;;5.22;3.90;;;7.80;99.90;;;;;;4970183;28;20047;-63
2022/03/28 03:59:36;;;;;;;7.13;4.65;;;7.80;99.90;;;;;;4955560;28;20055;-64
2022/03/28 04:02:01;;;;;;;8.00;5.20;;;7.70;99.90;;;;;;4980582;28;20038;-64
2022/03/28 04:04:27;;;;;;;8.35;5.05;;;7.70;99.90;;;;;;4986748;28;20046;-64
2022/03/28 04:06:52;;;;;;;7.25;6.13;;;7.70;99.90;;;;;;4961929;28;20047;-64
2022/03/28 04:09:18;;;;;;;6.97;5.45;;;7.70;99.90;;;;;;4957248;28;20051;-64
2022/03/28 04:11:44;;;;;;;5.25;4.47;;;7.80;99.90;;;;;;4965902;28;20035;-64
2022/03/28 04:14:10;;;;;;;6.78;5.22;;;7.80;99.90;;;;;;4971629;28;20046;-64
2022/03/28 04:16:35;;;;;;;6.13;5.00;;;7.80;99.90;;;;;;4983795;28;20484;-64
2022/03/28 04:19:01;;;;;;;7.72;6.13;;;7.80;99.90;;;;;;4965713;28;20047;-64
2022/03/28 04:21:27;;;;;;;14.80;5.90;;;7.80;99.90;;;;;;4959864;28;20052;-64
2022/03/28 04:23:52;;;;;;;5.28;4.63;;;7.80;99.90;;;;;;4980047;28;20131;-63
2022/03/28 04:26:18;;;;;;;7.10;4.72;;;7.80;99.90;;;;;;4977941;28;20122;-64
2022/03/28 04:28:44;;;;;;;10.15;4.80;;;7.80;99.90;;;;;;4954794;28;20036;-63
2022/03/28 04:31:10;;;;;;;5.00;4.45;;;7.80;99.90;;;;;;4975282;28;20042;-64
2022/03/28 04:33:36;;;;;;;5.45;4.85;;;7.70;99.90;;;;;;4969310;28;20058;-63
2022/03/28 04:36:02;;;;;;;8.27;5.03;;;7.80;99.90;;;;;;4969156;28;20082;-63
2022/03/28 04:38:28;;;;;;;8.70;4.18;;;7.80;99.90;;;;;;4981209;28;20078;-64
2022/03/28 04:40:53;;;;;;;5.13;4.25;;;7.80;99.90;;;;;;4975555;28;20051;-63
2022/03/28 04:43:20;;;;;;;6.03;4.75;;;7.80;99.90;;;;;;4963685;28;20043;-63
2022/03/28 04:45:46;;;;;;;6.70;4.03;;;7.90;99.90;;;;;;4980632;28;20049;-64
2022/03/28 04:48:12;;;;;;;5.95;4.15;;;7.80;99.90;;;;;;4974958;28;20513;-64
2022/03/28 04:50:38;;;;;;;6.78;5.10;;;7.90;99.90;;;;;;4961384;28;20386;-64
2022/03/28 04:53:03;;;;;;;11.35;5.72;;;7.80;99.90;;;;;;4987116;28;20046;-64
2022/03/28 04:55:29;;;;;;;7.07;4.40;;;7.80;99.90;;;;;;4958336;28;20047;-64
2022/03/28 04:57:55;;;;;;;5.20;4.50;;;7.90;99.90;;;;;;4964687;28;20050;-64
2022/03/28 05:00:22;;;;;;;6.93;4.45;;;7.90;99.90;;;;;;4980584;28;20035;-64
2022/03/28 05:02:47;;;;;;;7.72;4.65;;;7.80;99.90;;;;;;4962889;28;20086;-64
2022/03/28 05:05:13;;;;;;;7.68;5.30;;;7.90;99.90;;;;;;4954204;28;20087;-64
2022/03/28 05:07:39;;;;;;;7.20;4.45;;;7.80;99.90;;;;;;4956035;28;20047;-64
2022/03/28 05:10:06;;;;;;;8.63;4.90;;;7.80;99.90;;;;;;4966861;28;20039;-64
2022/03/28 05:12:33;;;;;;;7.25;4.68;;;7.90;99.90;;;;;;4978594;28;20038;-64
2022/03/28 05:14:58;;;;;;;6.07;5.20;;;7.90;99.90;;;;;;4969590;28;20051;-64
2022/03/28 05:17:27;;;;;;;9.07;5.18;;;7.80;99.90;;;;;;4975543;28;20066;-64
2022/03/28 05:19:53;;;;;;;5.55;4.00;;;7.80;99.90;;;;;;4983332;28;20047;-64
2022/03/28 05:22:20;;;;;;;6.70;3.97;;;7.70;99.90;;;;;;4970344;28;20054;-64
2022/03/28 05:24:46;;;;;;;6.18;4.55;;;7.80;99.90;;;;;;4959102;28;20179;-64
2022/03/28 05:27:11;;;;;;;6.50;4.75;;;7.70;99.90;;;;;;4966279;28;20202;-64
2022/03/28 05:29:37;;;;;;;5.38;4.72;;;7.70;99.90;;;;;;4954100;28;20720;-64
2022/03/28 05:32:03;;;;;;;9.23;5.60;;;7.70;99.90;;;;;;4958639;28;20035;-64
2022/03/28 05:34:31;;;;;;;9.20;4.70;;;7.70;99.90;;;;;;4964876;28;20049;-64
2022/03/28 05:36:59;;;;;;;9.15;6.40;;;7.70;99.90;;;;;;4979786;28;20057;-64
2022/03/28 05:39:26;;;;;;;6.47;4.30;;;7.70;99.90;;;;;;4977728;28;20668;-64
2022/03/28 05:41:52;;;;;;;8.43;4.93;;;7.80;99.90;;;;;;4954655;28;20047;-64
2022/03/28 05:44:20;;;;;;;10.90;5.25;;;7.80;99.90;;;;;;4975249;28;20068;-63
2022/03/28 05:46:48;;;;;;;8.23;5.40;;;7.70;99.90;;;;;;4971367;28;20101;-64
2022/03/28 05:49:14;;;;;;;7.85;5.38;;;7.70;99.90;;;;;;4955212;28;20047;-64
2022/03/28 05:51:40;;;;;;;10.15;5.70;;;7.80;99.90;;;;;;4966319;28;20449;-64
2022/03/28 05:54:06;;;;;;;8.20;5.60;;;7.80;99.90;;;;;;4980452;28;20121;-63
2022/03/28 05:56:31;;;;;;;9.10;4.78;;;7.80;99.90;;;;;;4976897;28;20034;-64
2022/03/28 05:58:57;;;;;;;8.48;5.13;;;7.80;99.90;;;;;;4957735;28;20062;-64
2022/03/28 06:01:22;;;;;;;6.82;4.95;;;7.80;99.90;;;;;;4961220;28;20050;-64
2022/03/28 06:03:48;;;;;;;5.65;5.15;;;7.80;99.90;;;;;;4976602;28;20057;-63
2022/03/28 06:06:13;;;;;;;8.45;5.88;;;7.80;99.90;;;;;;4981810;28;20046;-64
2022/03/28 06:08:39;;;;;;;6.88;5.72;;;7.80;99.90;;;;;;4972100;28;20050;-64
2022/03/28 06:11:05;;;;;;;9.35;5.88;;;7.80;99.90;;;;;;4969459;28;20062;-64
2022/03/28 06:13:32;;;;;;;9.55;5.95;;;7.80;99.90;;;;;;4974650;28;20062;-63
2022/03/28 06:15:58;;;;;;;7.97;5.85;;;7.80;99.90;;;;;;4972071;28;20096;-63
2022/03/28 06:18:24;;;;;;;9.93;5.90;;;7.90;99.90;;;;;;4954315;28;20043;-64
2022/03/28 06:20:49;;;;;;;7.68;5.85;;;7.80;99.90;;;;;;4971576;28;20064;-62
2022/03/28 06:23:15;;;;;;;6.53;5.32;;;7.90;99.90;;;;;;4983054;28;20042;-63
2022/03/28 06:25:40;;;;;;;6.22;5.53;;;7.80;99.90;;;;;;4971071;28;20091;-64
2022/03/28 06:28:06;;;;;;;8.35;6.47;;;7.80;99.90;;;;;;4971676;28;20066;-63
2022/03/28 06:30:31;;;;;;;9.27;5.93;;;7.80;99.90;;;;;;4954994;28;20134;-63
2022/03/28 06:32:57;;;;;;;7.65;6.93;;;7.80;99.90;;;;;;4952318;28;20558;-64
2022/03/28 06:35:23;;;;;;;9.30;7.55;;;7.80;99.90;;;;;;4960377;28;20046;-64
2022/03/28 06:37:53;;;;;;;9.07;5.63;;;7.80;99.90;;;;;;4971650;28;20090;-63
2022/03/28 06:40:19;;;;;;;7.20;5.88;;;7.90;99.90;;;;;;4966062;28;20051;-63
2022/03/28 06:42:45;;;;;;;7.47;5.90;;;7.80;99.90;;;;;;4953214;28;20137;-64
2022/03/28 06:45:11;;;;;;;9.50;6.80;;;7.90;99.90;;;;;;4956495;28;20138;-63
2022/03/28 06:47:38;;;;;;;7.60;6.82;;;7.80;99.90;;;;;;4957605;28;20511;-63
2022/03/28 06:50:05;;;;;;;8.10;6.60;;;7.80;99.90;;;;;;4970886;28;20065;-63
2022/03/28 06:52:32;;;;;;;9.23;5.70;;;7.80;99.90;;;;;;4972352;28;20057;-64
2022/03/28 06:54:58;;;;;;;8.02;7.00;;;7.80;99.90;;;;;;4955899;28;20470;-64
2022/03/28 06:57:23;;;;;;;9.27;7.28;;;7.90;99.90;;;;;;4953517;28;20130;-64
2022/03/28 06:59:49;;;;;;;8.93;7.20;;;7.90;99.90;;;;;;4968370;28;20038;-63
2022/03/28 07:02:14;;;;;;;8.68;7.05;;;7.90;99.90;;;;;;4970876;28;20043;-64
2022/03/28 07:04:40;;;;;;;11.95;8.02;;;7.90;99.90;;;;;;4963053;28;20483;-63
2022/03/28 07:07:08;;;;;;;9.68;7.97;;;7.90;99.90;;;;;;4963603;28;20396;-63
2022/03/28 07:09:36;;;;;;;9.05;8.13;;;7.90;99.90;;;;;;4968445;28;20684;-64
2022/03/28 07:12:05;;;;;;;11.90;8.43;;;7.90;99.90;;;;;;4966026;28;20039;-64
2022/03/28 07:14:31;;;;;;;12.73;8.60;;;7.80;99.90;;;;;;4968844;28;20166;-64
2022/03/28 07:16:57;;;;;;;10.73;7.70;;;7.90;99.90;;;;;;4968276;28;20039;-64
2022/03/28 07:19:22;;;;;;;14.00;9.07;;;7.90;99.90;;;;;;4962085;28;20050;-64
2022/03/28 07:21:48;;;;;;;11.40;8.30;;;7.90;99.90;;;;;;4955281;28;20549;-63
2022/03/28 07:24:15;;;;;;;12.25;8.10;;;7.90;99.90;;;;;;4966996;28;20101;-63
2022/03/28 07:26:44;;;;;;;8.65;7.30;;;7.80;99.90;;;;;;4964116;28;20682;-64
2022/03/28 07:29:09;;;;;;;10.30;8.20;;;7.90;99.90;;;;;;4964053;28;20043;-64
2022/03/28 07:31:39;;;;;;;11.95;6.38;;;7.80;99.90;;;;;;4968274;28;20035;-63
2022/03/28 07:36:51;;;;;;;6.40;5.38;;;7.90;99.90;;;;;;4960329;28;20146;-63
2022/03/28 07:39:19;;;;;;;5.18;4.40;;;7.90;99.90;;;;;;4964892;28;20717;-64
2022/03/28 07:41:45;;;;;;;3.65;3.22;;;8.00;99.90;;;;;;4971827;28;20050;-64
2022/03/28 07:44:10;;;;;;;4.05;2.95;;;8.00;99.90;;;;;;4970167;28;20043;-63
2022/03/28 07:46:36;;;;;;;3.10;2.58;;;8.00;99.90;;;;;;4966794;28;20380;-63
2022/03/28 07:49:01;;;;;;;4.32;3.10;;;8.00;99.90;;;;;;4950648;28;20055;-63
2022/03/28 07:51:27;;;;;;;3.70;2.97;;;8.00;99.90;;;;;;4950362;29;20047;-63
2022/03/28 07:53:54;;;;;;;5.45;2.92;;;8.00;99.90;;;;;;4949001;28;20075;-64
2022/03/28 07:56:20;;;;;;;5.78;4.03;;;8.10;99.90;;;;;;4950430;28;20122;-63
2022/03/28 07:58:46;;;;;;;4.85;4.13;;;8.10;99.90;;;;;;4950463;28;20105;-63
2022/03/28 08:01:12;;;;;;;5.15;3.47;;;8.10;99.90;;;;;;4953944;28;20085;-63
2022/03/28 08:03:38;;;;;;;4.53;2.92;;;8.00;99.90;;;;;;4969832;28;20102;-64
2022/03/28 08:06:04;;;;;;;4.05;3.42;;;8.10;99.90;;;;;;4967128;28;20043;-64
2022/03/28 08:08:31;;;;;;;5.70;3.92;;;8.10;99.90;;;;;;4971703;28;20049;-64
2022/03/28 08:10:57;;;;;;;4.53;3.70;;;8.10;99.90;;;;;;4989509;28;20047;-63
2022/03/28 08:13:22;;;;;;;6.30;4.50;;;8.10;99.90;;;;;;4981286;28;20032;-64
2022/03/28 08:15:48;;;;;;;4.55;4.13;;;8.20;99.90;;;;;;4954938;28;20121;-64
2022/03/28 08:18:15;;;;;;;5.35;4.85;;;8.20;99.90;;;;;;4950731;29;20035;-64
2022/03/28 08:20:43;;;;;;;8.35;6.10;;;8.30;99.90;;;;;;4951256;28;20055;-64
2022/03/28 08:23:09;;;;;;;13.48;5.75;;;8.30;99.90;;;;;;4969266;28;20108;-64
2022/03/28 08:25:35;;;;;;;8.15;6.53;;;8.20;99.90;;;;;;4949946;29;20639;-64
2022/03/28 08:28:01;;;;;;;8.20;6.38;;;8.10;99.90;;;;;;4950355;29;20427;-64
2022/03/28 08:30:27;;;;;;;9.20;6.22;;;8.10;99.90;;;;;;4963974;28;20050;-63
2022/03/28 08:32:55;;;;;;;9.13;5.95;;;8.10;99.90;;;;;;4966074;28;20415;-64
2022/03/28 08:35:21;;;;;;;7.63;6.40;;;8.00;99.90;;;;;;4948891;28;20043;-64
2022/03/28 08:37:47;;;;;;;11.20;5.50;;;8.10;99.90;;;;;;4963735;28;20045;-64
2022/03/28 08:40:16;;;;;;;7.57;6.18;;;8.10;99.90;;;;;;4985259;28;20050;-64
2022/03/28 08:42:42;;;;;;;8.60;7.00;;;8.20;99.90;;;;;;4957316;28;20517;-64
2022/03/28 08:45:11;;;;;;;8.43;6.53;;;8.30;99.90;;;;;;4960683;28;20130;-64
2022/03/28 08:47:40;;;;;;;9.82;6.55;;;8.30;99.90;;;;;;4951719;28;20051;-64
2022/03/28 08:50:06;;;;;;;8.55;6.30;;;8.20;99.90;;;;;;4953306;28;20470;-63
2022/03/28 08:52:32;;;;;;;7.10;5.50;;;8.30;99.90;;;;;;4951312;28;20051;-64
2022/03/28 08:54:57;;;;;;;7.82;5.95;;;8.30;99.90;;;;;;4952987;28;20062;-64
2022/03/28 08:57:23;;;;;;;7.40;6.15;;;8.40;99.90;;;;;;4970752;28;20042;-64
2022/03/28 08:59:49;;;;;;;8.00;6.25;;;8.40;99.90;;;;;;4992438;28;20108;-63
2022/03/28 09:02:37;;;;;;;7.82;7.03;;;8.40;99.90;;;;;;4992443;28;20125;-64
2022/03/28 09:05:03;;;;;;;11.95;7.38;;;8.50;99.90;;;;;;4955240;28;20530;-64
2022/03/28 09:07:30;;;;;;;13.18;8.48;;;8.50;99.90;;;;;;4963672;28;20051;-64
2022/03/28 09:10:00;;;;;;;8.88;7.43;;;8.50;99.90;;;;;;4955997;28;20035;-64
2022/03/28 09:12:26;;;;;;;9.13;8.23;;;8.60;99.90;;;;;;4955615;28;20427;-63
2022/03/28 09:15:08;;;;;;;10.10;7.70;;;8.50;99.90;;;;;;4973030;28;20105;-64
2022/03/28 09:17:33;;;;;;;9.40;7.43;;;8.60;99.90;;;;;;4962628;28;20094;-64
2022/03/28 09:20:02;;;;;;;8.82;7.57;;;8.60;99.90;;;;;;4966228;28;20055;-64
2022/03/28 09:22:34;;;;;;;8.90;7.68;;;8.50;99.90;;;;;;4959496;28;20047;-63
2022/03/28 09:25:08;;;;;;;9.95;7.20;;;8.50;99.90;;;;;;4955443;28;20695;-63
2022/03/28 09:27:39;;;;;;;10.02;8.20;;;8.60;99.90;;;;;;4965319;28;20153;-64
2022/03/28 09:30:07;;;;;;;9.05;7.88;;;8.70;99.90;;;;;;4953206;28;20087;-63
2022/03/28 09:32:41;;;;;;;8.80;7.90;;;8.80;99.90;;;;;;4951927;29;20047;-64
2022/03/28 09:35:09;;;;;;;10.88;8.80;;;8.80;99.90;;;;;;4952337;28;20058;-64
2022/03/28 09:38:11;;;;;;;10.88;8.75;;;9.00;99.90;;;;;;4952764;28;20113;-64
2022/03/28 09:40:51;;;;;;;10.30;8.73;;;9.10;99.90;;;;;;4951734;28;20051;-63
2022/03/28 09:43:24;;;;;;;8.65;7.53;;;9.00;99.90;;;;;;4951153;28;20448;-64
2022/03/28 09:45:54;;;;;;;11.35;9.93;;;9.10;99.90;;;;;;4952521;28;20492;-64
2022/03/28 09:48:22;;;;;;;10.45;8.68;;;9.10;99.90;;;;;;4969383;28;20143;-64
2022/03/28 09:51:00;;;;;;;10.20;9.07;;;9.10;99.90;;;;;;4952848;28;20091;-64
2022/03/28 09:53:33;;;;;;;9.98;8.50;;;9.10;99.90;;;;;;4951263;28;20118;-64
2022/03/28 09:56:01;;;;;;;12.40;8.15;;;9.20;99.90;;;;;;4970936;28;20554;-63
2022/03/28 09:58:35;;;;;;;13.75;11.10;;;9.40;99.90;;;;;;4973316;28;20381;-64
2022/03/28 10:01:04;;;;;;;10.35;9.13;;;9.30;99.90;;;;;;4951699;28;20538;-64
2022/03/28 10:03:33;;;;;;;11.35;10.23;;;9.40;99.90;;;;;;4953012;28;20410;-64
2022/03/28 10:06:01;;;;;;;12.43;11.05;;;9.30;99.90;;;;;;4959118;28;20047;-63
2022/03/28 10:08:30;;;;;;;12.65;9.85;;;9.20;99.90;;;;;;4958515;28;20051;-63
2022/03/28 10:11:00;;;;;;;12.63;11.32;;;9.30;99.90;;;;;;4969376;28;20450;-63
2022/03/28 10:13:26;;;;;;;14.82;10.30;;;9.30;99.90;;;;;;4984183;28;20045;-64
2022/03/28 10:15:53;;;;;;;10.27;9.18;;;9.10;99.90;;;;;;4990232;28;20054;-64
2022/03/28 10:18:19;;;;;;;14.63;9.23;;;9.20;99.90;;;;;;4951551;28;20536;-64
2022/03/28 10:20:47;;;;;;;9.63;8.63;;;9.40;99.90;;;;;;4963693;28;20058;-64
2022/03/28 10:23:17;;;;;;;10.27;8.88;;;9.50;99.90;;;;;;4966088;28;20568;-64
2022/03/28 10:25:43;;;;;;;15.95;9.90;;;9.70;99.90;;;;;;4956280;28;20451;-64
2022/03/28 10:28:09;;;;;;;13.68;10.38;;;9.60;99.90;;;;;;4969655;28;20051;-63
2022/03/28 10:30:35;;;;;;;11.65;9.65;;;9.50;99.90;;;;;;4965988;28;20163;-64
2022/03/28 10:33:16;;;;;;;12.05;9.52;;;9.50;99.90;;;;;;4981640;28;20086;-64
2022/03/28 10:35:55;;;;;;;14.65;10.50;;;9.70;99.90;;;;;;4977153;28;20102;-64
2022/03/28 10:38:21;;;;;;;10.57;9.38;;;9.60;99.90;;;;;;4961802;28;20375;-63
2022/03/28 10:41:00;;;;;;;15.95;10.48;;;9.70;99.90;;;;;;4983961;28;20478;-63
2022/03/28 10:43:29;;;;;;;10.77;8.82;;;9.80;99.90;;;;;;4988828;28;20046;-64
2022/03/28 10:46:03;;;;;;;10.60;7.82;;;9.80;99.90;;;;;;4979414;28;20079;-64
2022/03/28 10:48:55;;;;;;;11.60;8.85;;;9.70;99.90;;;;;;4970841;28;20044;-64
2022/03/28 10:51:24;;;;;;;10.07;8.90;;;9.70;99.90;;;;;;4950655;28;20130;-64
2022/03/28 10:53:56;;;;;;;12.35;9.02;;;9.80;99.90;;;;;;4976913;28;20402;-64
2022/03/28 10:56:30;;;;;;;14.68;10.05;;;9.90;99.90;;;;;;4965273;28;20049;-64
2022/03/28 10:58:58;;;;;;;13.10;10.02;;;9.90;99.90;;;;;;4966156;28;20071;-64
2022/03/28 11:01:35;;;;;;;11.00;9.48;;;10.10;99.90;;;;;;4970097;28;20748;-64
2022/03/28 11:04:23;;;;;;;14.15;10.05;;;10.20;99.90;;;;;;4968991;28;20046;-64
2022/03/28 11:06:59;;;;;;;18.67;12.55;;;10.20;99.90;;;;;;4955984;28;20055;-64
2022/03/28 11:09:51;;;;;;;10.15;9.02;;;10.30;99.90;;;;;;4961223;28;20179;-64
2022/03/28 11:12:26;;;;;;;10.48;9.35;;;10.10;99.90;;;;;;4971251;28;20514;-64
2022/03/28 11:14:51;;;;;;;12.15;9.43;;;10.10;99.90;;;;;;4981626;28;20059;-64
2022/03/28 11:17:20;;;;;;;12.18;9.52;;;10.10;99.90;;;;;;4974317;28;20050;-64
2022/03/28 11:19:53;;;;;;;9.93;8.93;;;10.30;99.90;;;;;;4956275;28;20486;-64
2022/03/28 11:22:36;;;;;;;12.25;10.05;;;10.30;99.90;;;;;;4970713;28;20086;-64
2022/03/28 11:25:02;;;;;;;12.68;11.32;;;10.40;99.90;;;;;;4958682;28;20047;-63
2022/03/28 11:27:32;;;;;;;11.25;10.05;;;10.40;99.90;;;;;;4949966;28;20492;-64
2022/03/28 11:30:11;;;;;;;11.70;10.50;;;10.60;99.90;;;;;;4950845;28;20491;-64
2022/03/28 11:32:37;;;;;;;13.80;11.10;;;10.80;99.90;;;;;;4987206;28;20046;-64
2022/03/28 11:35:04;;;;;;;11.88;10.18;;;10.90;99.90;;;;;;4989748;28;20053;-64
2022/03/28 11:37:30;;;;;;;16.67;10.52;;;11.10;99.90;;;;;;5000102;28;20683;-64
2022/03/28 11:40:08;;;;;;;17.15;10.40;;;11.30;99.90;;;;;;4961777;28;20125;-64
2022/03/28 11:42:35;;;;;;;12.32;10.43;;;11.60;99.90;;;;;;4972358;28;20054;-64
2022/03/28 11:45:09;;;;;;;13.85;10.20;;;11.90;99.90;;;;;;4971681;28;20093;-64
2022/03/28 11:47:36;;;;;;;12.80;9.68;;;12.30;99.90;;;;;;4965317;28;20051;-64
2022/03/28 11:50:04;;;;;;;12.35;9.32;;;12.60;99.90;;;;;;4963595;28;20038;-64
2022/03/28 11:52:31;;;;;;;11.80;10.50;;;12.80;99.90;;;;;;4965610;28;20153;-64
2022/03/28 11:54:58;;;;;;;11.02;9.07;;;13.10;99.90;;;;;;4973673;28;20118;-64
2022/03/28 12:00:33;;;;;;;16.27;8.82;;;13.60;99.90;;;;;;4945330;28;20050;-63
2022/03/28 12:02:59;;;;;;;17.67;10.07;;;14.20;99.90;;;;;;4960320;28;20418;-64
2022/03/28 12:05:41;;;;;;;11.43;9.65;;;13.70;99.90;;;;;;4951865;28;20047;-64
2022/03/28 12:08:09;;;;;;;10.00;8.98;;;13.70;99.90;;;;;;4964685;28;20150;-63
2022/03/28 12:10:37;;;;;;;12.32;10.50;;;13.40;99.90;;;;;;4970318;28;20454;-63
2022/03/28 12:13:05;;;;;;;9.05;8.15;;;13.90;99.90;;;;;;4967109;28;20050;-63
2022/03/28 12:15:37;;;;;;;14.35;11.23;;;14.20;99.90;;;;;;4952738;28;20062;-63
2022/03/28 12:18:09;;;;;;;13.88;9.55;;;14.00;99.90;;;;;;4974171;28;20060;-63
2022/03/28 12:20:38;;;;;;;15.13;9.65;;;14.40;99.90;;;;;;4968158;28;20046;-63
2022/03/28 12:23:06;;;;;;;12.50;10.13;;;14.50;99.90;;;;;;4962032;28;20042;-64
2022/03/28 12:25:40;;;;;;;10.80;9.57;;;14.70;99.90;;;;;;4994800;28;20053;-64
2022/03/28 12:28:09;;;;;;;15.02;9.18;;;14.90;99.90;;;;;;4993734;28;20468;-63
2022/03/28 12:30:50;;;;;;;12.25;9.50;;;15.30;99.90;;;;;;4968907;28;20054;-64
2022/03/28 12:33:22;;;;;;;11.95;9.27;;;15.10;99.90;;;;;;4955843;28;20058;-64
2022/03/28 12:35:56;;;;;;;11.73;9.73;;;15.30;99.90;;;;;;4955930;28;20070;-64
2022/03/28 12:38:25;;;;;;;;;;;15.50;99.90;;;;;;4972326;28;20054;-64
2022/03/28 12:40:54;;;;;;;11.60;8.85;;;15.40;99.90;;;;;;4984139;28;20556;-64
2022/03/28 12:43:23;;;;;;;11.20;10.10;;;15.90;99.90;;;;;;4993794;28;20100;-64
2022/03/28 12:45:51;;;;;;;10.20;8.00;;;15.90;99.90;;;;;;4988735;28;20582;-64
2022/03/28 12:48:17;;;;;;;9.20;8.25;;;16.00;99.90;;;;;;4964902;28;20062;-63
2022/03/28 12:50:55;;;;;;;11.15;8.70;;;15.90;99.90;;;;;;4953851;28;20051;-64
2022/03/28 12:53:24;;;;;;;12.48;7.05;;;16.20;99.90;;;;;;4956277;28;20047;-64
2022/03/28 12:55:50;;;;;;;10.73;7.60;;;16.20;99.90;;;;;;4955942;28;20047;-64
2022/03/28 12:58:15;;;;;;;8.68;6.82;;;16.10;99.90;;;;;;4955666;28;20094;-65